createdAt,value
2022-07-28T00:00:37.964Z,101674.81
2022-07-28T00:03:04.631Z,101671.13
2022-07-28T00:05:32.440Z,101671.59
2022-07-28T00:08:00.818Z,101662.06
2022-07-28T00:10:27.182Z,101660.06
2022-07-28T00:12:53.512Z,101656.38
2022-07-28T00:15:19.851Z,101666.03
2022-07-28T00:17:46.196Z,101653.66
2022-07-28T00:20:12.559Z,101661.53
2022-07-28T00:22:42.560Z,101656.84
2022-07-28T00:25:09.176Z,101660.38
2022-07-28T00:27:35.518Z,101663.66
2022-07-28T00:30:02.172Z,101660.16
2022-07-28T00:32:28.512Z,101662.19
2022-07-28T00:34:56.617Z,101663.19
2022-07-28T00:37:23.195Z,101659.81
2022-07-28T00:39:50.938Z,101654.94
2022-07-28T00:42:17.543Z,101663.31
2022-07-28T00:44:43.879Z,101670.59
2022-07-28T00:47:10.230Z,101669.63
2022-07-28T00:49:36.568Z,101664.78
2022-07-28T00:52:03.932Z,101659.56
2022-07-28T00:54:32.076Z,101650.03
2022-07-28T00:56:59.806Z,101649.19
2022-07-28T00:59:26.126Z,101655.00
2022-07-28T01:01:53.480Z,101649.81
2022-07-28T01:04:21.677Z,101650.97
2022-07-28T01:06:54.966Z,101648.47
2022-07-28T01:09:29.575Z,101644.25
2022-07-28T01:12:01.217Z,101660.63
2022-07-28T01:14:32.172Z,101653.47
2022-07-28T01:17:01.840Z,101647.28
2022-07-28T01:19:34.069Z,101653.63
2022-07-28T01:22:01.578Z,101644.38
2022-07-28T01:24:31.427Z,101651.56
2022-07-28T01:27:00.835Z,101648.91
2022-07-28T01:29:56.627Z,101646.38
2022-07-28T01:32:25.691Z,101632.38
2022-07-28T01:34:54.074Z,101634.50
2022-07-28T01:37:24.929Z,101634.97
2022-07-28T01:39:52.432Z,101640.97
2022-07-28T01:42:21.000Z,101636.94
2022-07-28T01:44:48.564Z,101643.94
2022-07-28T01:47:16.099Z,101637.09
2022-07-28T01:49:45.180Z,101636.44
2022-07-28T01:52:11.641Z,101633.22
2022-07-28T01:54:40.203Z,101626.22
2022-07-28T01:57:07.856Z,101628.19
2022-07-28T01:59:35.713Z,101619.66
2022-07-28T02:02:02.516Z,101624.63
2022-07-28T02:04:30.992Z,101624.50
2022-07-28T02:06:59.400Z,101621.59
2022-07-28T02:09:26.501Z,101621.09
2022-07-28T02:11:53.994Z,101614.22
2022-07-28T02:14:21.853Z,101621.69
2022-07-28T02:16:48.871Z,101610.34
2022-07-28T02:19:16.294Z,101612.16
2022-07-28T02:21:44.395Z,101609.97
2022-07-28T02:24:12.368Z,101618.97
2022-07-28T02:26:41.909Z,101606.78
2022-07-28T02:29:27.378Z,101605.94
2022-07-28T02:32:01.107Z,101601.25
2022-07-28T02:34:28.660Z,101603.06
2022-07-28T02:36:57.562Z,101602.53
2022-07-28T02:39:26.709Z,101594.19
2022-07-28T02:41:57.977Z,101586.78
2022-07-28T02:44:26.999Z,101589.28
2022-07-28T02:46:54.972Z,101585.44
2022-07-28T02:49:23.280Z,101585.72
2022-07-28T02:51:50.988Z,101594.72
2022-07-28T02:54:17.802Z,101590.69
2022-07-28T02:56:53.123Z,101590.13
2022-07-28T02:59:21.054Z,101586.94
2022-07-28T03:01:48.236Z,101578.88
2022-07-28T03:04:15.326Z,101589.38
2022-07-28T03:06:42.032Z,101587.03
2022-07-28T03:09:08.434Z,101588.84
2022-07-28T03:11:35.106Z,101585.63
2022-07-28T03:14:02.793Z,101583.97
2022-07-28T03:16:29.157Z,101585.78
2022-07-28T03:18:55.921Z,101589.91
2022-07-28T03:21:22.257Z,101591.59
2022-07-28T03:23:50.458Z,101592.88
2022-07-28T03:26:19.310Z,101587.69
2022-07-28T03:28:46.234Z,101592.66
2022-07-28T03:31:15.322Z,101587.63
2022-07-28T03:33:41.918Z,101587.09
2022-07-28T03:36:12.038Z,101590.22
2022-07-28T03:38:40.890Z,101587.69
2022-07-28T03:41:09.193Z,101592.03
2022-07-28T03:43:35.812Z,101591.34
2022-07-28T03:46:02.480Z,101597.81
2022-07-28T03:48:30.374Z,101598.50
2022-07-28T03:50:56.964Z,101598.66
2022-07-28T03:53:24.831Z,101598.94
2022-07-28T03:55:51.346Z,101597.75
2022-07-28T03:58:17.821Z,101601.09
2022-07-28T04:00:44.231Z,101597.75
2022-07-28T04:03:35.337Z,101595.38
2022-07-28T04:05:58.257Z,101592.84
2022-07-28T04:08:24.630Z,101598.19
2022-07-28T04:10:50.995Z,101593.69
2022-07-28T04:13:17.303Z,101593.00
2022-07-28T04:15:43.653Z,101591.03
2022-07-28T04:18:09.985Z,101592.84
2022-07-28T04:20:36.323Z,101589.19
2022-07-28T04:23:04.048Z,101595.38
2022-07-28T04:25:30.374Z,101586.25
2022-07-28T04:27:56.741Z,101594.94
2022-07-28T04:30:23.716Z,101588.97
2022-07-28T04:32:50.820Z,101592.47
2022-07-28T04:35:17.835Z,101587.44
2022-07-28T04:37:44.729Z,101592.19
2022-07-28T04:40:13.540Z,101598.94
2022-07-28T04:42:40.377Z,101591.34
2022-07-28T04:45:07.535Z,101591.22
2022-07-28T04:47:34.248Z,101587.56
2022-07-28T04:50:00.725Z,101588.25
2022-07-28T04:52:27.117Z,101589.06
2022-07-28T04:54:53.733Z,101595.91
2022-07-28T04:57:21.428Z,101583.97
2022-07-28T04:59:50.210Z,101581.00
2022-07-28T05:02:16.542Z,101578.00
2022-07-28T05:04:43.258Z,101592.34
2022-07-28T05:07:12.773Z,101584.53
2022-07-28T05:09:39.427Z,101595.69
2022-07-28T05:12:06.009Z,101591.28
2022-07-28T05:14:33.706Z,101586.78
2022-07-28T05:17:00.118Z,101596.16
2022-07-28T05:19:26.563Z,101592.84
2022-07-28T05:21:52.901Z,101591.97
2022-07-28T05:24:19.237Z,101594.72
2022-07-28T05:26:45.574Z,101596.47
2022-07-28T05:29:11.911Z,101597.84
2022-07-28T05:31:39.648Z,101596.88
2022-07-28T05:34:06.033Z,101599.25
2022-07-28T05:36:32.500Z,101593.44
2022-07-28T05:38:58.819Z,101597.63
2022-07-28T05:41:25.170Z,101604.69
2022-07-28T05:43:51.498Z,101605.91
2022-07-28T05:46:17.917Z,101605.56
2022-07-28T05:48:45.740Z,101615.97
2022-07-28T05:51:12.127Z,101605.88
2022-07-28T05:53:38.458Z,101608.06
2022-07-28T05:56:05.104Z,101604.75
2022-07-28T05:58:31.410Z,101602.63
2022-07-28T06:00:58.427Z,101594.00
2022-07-28T06:03:24.826Z,101604.69
2022-07-28T06:06:14.147Z,101594.69
2022-07-28T06:08:40.108Z,101589.34
2022-07-28T06:11:06.533Z,101594.69
2022-07-28T06:13:33.011Z,101601.91
2022-07-28T06:15:59.516Z,101592.44
2022-07-28T06:18:25.904Z,101593.91
2022-07-28T06:20:53.629Z,101589.94
2022-07-28T06:23:19.960Z,101590.94
2022-07-28T06:25:46.344Z,101588.41
2022-07-28T06:28:12.672Z,101590.44
2022-07-28T06:30:39.031Z,101586.13
2022-07-28T06:33:05.352Z,101588.31
2022-07-28T06:35:31.739Z,101589.47
2022-07-28T06:38:13.674Z,101583.13
2022-07-28T06:40:40.060Z,101592.81
2022-07-28T06:43:06.395Z,101595.34
2022-07-28T06:45:32.902Z,101594.34
2022-07-28T06:47:59.300Z,101596.38
2022-07-28T06:50:27.165Z,101593.34
2022-07-28T06:52:53.844Z,101599.72
2022-07-28T06:55:21.628Z,101597.72
2022-07-28T06:57:49.033Z,101595.34
2022-07-28T07:00:15.645Z,101601.53
2022-07-28T07:02:42.273Z,101592.19
2022-07-28T07:05:09.319Z,101602.22
2022-07-28T07:07:38.543Z,101598.53
2022-07-28T07:10:09.263Z,101599.34
2022-07-28T07:12:36.985Z,101593.16
2022-07-28T07:15:03.993Z,101595.81
2022-07-28T07:17:30.315Z,101605.66
2022-07-28T07:19:56.747Z,101591.91
2022-07-28T07:22:23.098Z,101595.72
2022-07-28T07:24:53.588Z,101597.00
2022-07-28T07:27:22.812Z,101602.72
2022-07-28T07:29:50.695Z,101596.84
2022-07-28T07:32:17.047Z,101594.72
2022-07-28T07:34:43.393Z,101590.66
2022-07-28T07:37:09.727Z,101588.25
2022-07-28T07:39:36.035Z,101585.13
2022-07-28T07:42:02.356Z,101591.28
2022-07-28T07:44:28.697Z,101590.22
2022-07-28T07:46:56.411Z,101579.59
2022-07-28T07:49:22.837Z,101572.84
2022-07-28T07:51:49.243Z,101578.53
2022-07-28T07:54:15.908Z,101579.78
2022-07-28T07:56:42.493Z,101571.66
2022-07-28T07:59:08.819Z,101578.63
2022-07-28T08:01:35.179Z,101574.31
2022-07-28T08:04:08.363Z,101581.34
2022-07-28T08:06:34.766Z,101578.41
2022-07-28T08:09:02.246Z,101573.44
2022-07-28T08:11:28.608Z,101566.69
2022-07-28T08:13:54.954Z,101567.44
2022-07-28T08:16:21.395Z,101568.72
2022-07-28T08:18:47.769Z,101565.56
2022-07-28T08:21:15.453Z,101564.00
2022-07-28T08:23:41.768Z,101559.38
2022-07-28T08:26:08.133Z,101564.38
2022-07-28T08:28:34.488Z,101558.53
2022-07-28T08:31:00.900Z,101559.91
2022-07-28T08:33:27.299Z,101558.94
2022-07-28T08:35:53.755Z,101559.47
2022-07-28T08:38:21.443Z,101570.50
2022-07-28T08:40:48.862Z,101553.72
2022-07-28T08:43:18.820Z,101557.97
2022-07-28T08:45:47.601Z,101561.66
2022-07-28T08:48:14.319Z,101562.19
2022-07-28T08:50:42.079Z,101565.50
2022-07-28T08:53:08.851Z,101561.66
2022-07-28T08:55:37.500Z,101563.44
2022-07-28T08:58:04.245Z,101559.44
2022-07-28T09:00:31.220Z,101552.94
2022-07-28T09:02:57.731Z,101562.13
2022-07-28T09:05:24.435Z,101557.03
2022-07-28T09:07:54.639Z,101555.00
2022-07-28T09:10:21.415Z,101554.84
2022-07-28T09:12:49.125Z,101538.91
2022-07-28T09:15:15.517Z,101540.19
2022-07-28T09:17:42.101Z,101531.94
2022-07-28T09:20:11.311Z,101533.19
2022-07-28T09:22:54.207Z,101534.06
2022-07-28T09:25:20.539Z,101528.47
2022-07-28T09:27:46.888Z,101531.75
2022-07-28T09:30:14.682Z,101526.56
2022-07-28T09:32:41.155Z,101529.31
2022-07-28T09:35:17.845Z,101529.56
2022-07-28T09:37:45.137Z,101520.25
2022-07-28T09:40:12.830Z,101531.25
2022-07-28T09:42:45.172Z,101521.94
2022-07-28T09:45:26.759Z,101507.63
2022-07-28T09:48:07.663Z,101507.47
2022-07-28T09:50:34.163Z,101513.75
2022-07-28T09:53:00.492Z,101510.22
2022-07-28T09:55:26.831Z,101506.66
2022-07-28T09:57:53.155Z,101513.53
2022-07-28T10:00:25.402Z,101495.88
2022-07-28T10:02:54.186Z,101499.81
2022-07-28T10:05:21.886Z,101507.53
2022-07-28T10:07:48.408Z,101509.22
2022-07-28T10:10:19.809Z,101509.19
2022-07-28T10:12:46.154Z,101501.09
2022-07-28T10:15:13.524Z,101502.53
2022-07-28T10:17:39.897Z,101512.50
2022-07-28T10:20:06.895Z,101500.88
2022-07-28T10:22:39.546Z,101499.41
2022-07-28T10:25:09.566Z,101496.03
2022-07-28T10:27:36.607Z,101489.78
2022-07-28T10:30:04.925Z,101486.22
2022-07-28T10:32:33.128Z,101491.00
2022-07-28T10:35:00.535Z,101486.19
2022-07-28T10:37:27.728Z,101488.69
2022-07-28T10:39:57.901Z,101481.47
2022-07-28T10:42:24.678Z,101484.38
2022-07-28T10:44:51.513Z,101491.03
2022-07-28T10:47:20.017Z,101475.63
2022-07-28T10:49:48.747Z,101479.56
2022-07-28T10:52:37.646Z,101483.22
2022-07-28T10:55:15.397Z,101472.09
2022-07-28T10:58:02.213Z,101481.97
2022-07-28T11:00:55.384Z,101479.59
2022-07-28T11:03:36.745Z,101477.66
2022-07-28T11:06:18.057Z,101477.53
2022-07-28T11:08:44.395Z,101470.03
2022-07-28T11:11:15.454Z,101477.97
2022-07-28T11:13:41.805Z,101472.75
2022-07-28T11:16:18.442Z,101469.13
2022-07-28T11:18:59.747Z,101466.72
2022-07-28T11:21:27.260Z,101464.84
2022-07-28T11:23:57.333Z,101451.69
2022-07-28T11:26:32.519Z,101450.91
2022-07-28T11:29:15.244Z,101441.97
2022-07-28T11:32:04.335Z,101445.81
2022-07-28T11:34:49.167Z,101440.50
2022-07-28T11:37:15.561Z,101441.22
2022-07-28T11:39:44.093Z,101441.22
2022-07-28T11:42:28.230Z,101431.22
2022-07-28T11:44:56.722Z,101433.72
2022-07-28T11:47:24.245Z,101428.72
2022-07-28T11:50:09.213Z,101428.00
2022-07-28T11:52:36.076Z,101421.81
2022-07-28T11:55:02.579Z,101428.16
2022-07-28T11:57:30.448Z,101423.19
2022-07-28T12:00:01.081Z,101424.63
2022-07-28T12:02:28.718Z,101419.03
2022-07-28T12:04:56.388Z,101421.75
2022-07-28T12:07:27.858Z,101423.34
2022-07-28T12:09:57.148Z,101420.72
2022-07-28T12:12:23.501Z,101414.41
2022-07-28T12:14:51.350Z,101412.78
2022-07-28T12:17:17.680Z,101418.34
2022-07-28T12:19:44.457Z,101412.34
2022-07-28T12:22:12.569Z,101404.56
2022-07-28T12:24:45.958Z,101405.03
2022-07-28T12:27:13.030Z,101405.94
2022-07-28T12:29:39.458Z,101400.81
2022-07-28T12:32:07.995Z,101401.19
2022-07-28T12:34:35.002Z,101402.09
2022-07-28T12:37:02.506Z,101395.94
2022-07-28T12:39:29.142Z,101392.81
2022-07-28T12:42:01.797Z,101395.34
2022-07-28T12:44:32.024Z,101397.94
2022-07-28T12:46:58.467Z,101389.94
2022-07-28T12:49:26.232Z,101387.16
2022-07-28T12:51:52.671Z,101393.63
2022-07-28T12:54:33.277Z,101393.56
2022-07-28T12:56:59.658Z,101388.03
2022-07-28T12:59:31.562Z,101387.75
2022-07-28T13:01:58.254Z,101391.91
2022-07-28T13:04:39.386Z,101386.03
2022-07-28T13:07:06.174Z,101389.75
2022-07-28T13:09:32.966Z,101399.34
2022-07-28T13:12:01.785Z,101393.53
2022-07-28T13:14:40.498Z,101384.56
2022-07-28T13:17:06.841Z,101389.91
2022-07-28T13:19:33.190Z,101383.97
2022-07-28T13:22:05.400Z,101386.59
2022-07-28T13:24:34.982Z,101393.78
2022-07-28T13:27:01.831Z,101391.06
2022-07-28T13:29:28.162Z,101389.66
2022-07-28T13:31:55.033Z,101386.81
2022-07-28T13:34:21.944Z,101383.84
2022-07-28T13:36:48.271Z,101380.00
2022-07-28T13:39:15.958Z,101391.22
2022-07-28T13:41:58.015Z,101372.09
2022-07-28T13:44:25.364Z,101373.91
2022-07-28T13:46:51.760Z,101373.22
2022-07-28T13:49:18.287Z,101372.78
2022-07-28T13:51:47.979Z,101368.63
2022-07-28T13:54:16.041Z,101376.78
2022-07-28T13:56:43.079Z,101370.16
2022-07-28T13:59:09.469Z,101368.97
2022-07-28T14:01:39.716Z,101373.47
2022-07-28T14:04:07.153Z,101370.63
2022-07-28T14:06:33.610Z,101369.66
2022-07-28T14:08:59.955Z,101369.66
2022-07-28T14:11:36.362Z,101368.19
2022-07-28T14:14:02.951Z,101370.66
2022-07-28T14:16:30.469Z,101365.13
2022-07-28T14:18:57.411Z,101361.09
2022-07-28T14:21:24.199Z,101365.75
2022-07-28T14:23:50.600Z,101362.44
2022-07-28T14:26:35.143Z,101358.34
2022-07-28T14:29:03.432Z,101358.69
2022-07-28T14:31:37.797Z,101359.16
2022-07-28T14:34:04.260Z,101344.25
2022-07-28T14:36:30.617Z,101344.34
2022-07-28T14:38:57.329Z,101338.31
2022-07-28T14:41:23.664Z,101331.13
2022-07-28T14:43:49.986Z,101330.53
2022-07-28T14:46:21.476Z,101335.34
2022-07-28T14:48:48.630Z,101341.38
2022-07-28T14:51:14.981Z,101343.47
2022-07-28T14:53:41.376Z,101341.59
2022-07-28T14:56:16.333Z,101344.81
2022-07-28T14:58:42.733Z,101341.88
2022-07-28T15:01:09.176Z,101343.75
2022-07-28T15:03:36.844Z,101336.81
2022-07-28T15:06:03.406Z,101331.88
2022-07-28T15:08:29.751Z,101335.22
2022-07-28T15:10:56.113Z,101335.84
2022-07-28T15:13:22.437Z,101335.38
2022-07-28T15:15:48.860Z,101332.44
2022-07-28T15:18:15.241Z,101324.44
2022-07-28T15:20:42.950Z,101328.44
2022-07-28T15:23:09.263Z,101329.84
2022-07-28T15:25:35.594Z,101327.34
2022-07-28T15:28:01.943Z,101323.22
2022-07-28T15:30:28.297Z,101320.47
2022-07-28T15:32:57.121Z,101319.66
2022-07-28T15:35:23.988Z,101325.25
2022-07-28T15:37:51.675Z,101318.22
2022-07-28T15:40:18.043Z,101316.56
2022-07-28T15:42:44.364Z,101319.28
2022-07-28T15:45:10.996Z,101333.34
2022-07-28T15:47:37.368Z,101316.56
2022-07-28T15:50:04.020Z,101321.19
2022-07-28T15:52:30.365Z,101316.56
2022-07-28T15:54:58.041Z,101312.81
2022-07-28T15:57:24.439Z,101308.53
2022-07-28T15:59:51.020Z,101308.88
2022-07-28T16:02:17.762Z,101312.75
2022-07-28T16:04:53.198Z,101306.00
2022-07-28T16:07:22.421Z,101309.63
2022-07-28T16:09:49.499Z,101304.09
2022-07-28T16:12:17.385Z,101304.66
2022-07-28T16:14:43.718Z,101308.09
2022-07-28T16:17:10.920Z,101298.69
2022-07-28T16:19:52.663Z,101301.31
2022-07-28T16:22:19.485Z,101302.38
2022-07-28T16:24:46.246Z,101296.69
2022-07-28T16:27:12.673Z,101292.78
2022-07-28T16:29:40.346Z,101297.91
2022-07-28T16:32:06.756Z,101294.81
2022-07-28T16:34:33.101Z,101296.34
2022-07-28T16:36:59.437Z,101290.59
2022-07-28T16:39:25.791Z,101292.78
2022-07-28T16:41:52.125Z,101295.16
2022-07-28T16:44:19.539Z,101294.25
2022-07-28T16:46:47.372Z,101297.56
2022-07-28T16:49:13.982Z,101295.41
2022-07-28T16:51:40.333Z,101291.41
2022-07-28T16:54:06.656Z,101291.06
2022-07-28T16:56:33.021Z,101288.81
2022-07-28T16:58:59.341Z,101281.59
2022-07-28T17:01:25.979Z,101283.59
2022-07-28T17:03:53.681Z,101288.06
2022-07-28T17:06:20.067Z,101283.84
2022-07-28T17:08:46.386Z,101280.75
2022-07-28T17:11:12.724Z,101285.00
2022-07-28T17:13:43.466Z,101278.13
2022-07-28T17:16:12.016Z,101284.47
2022-07-28T17:18:38.399Z,101281.75
2022-07-28T17:21:06.128Z,101288.69
2022-07-28T17:23:32.571Z,101286.22
2022-07-28T17:28:49.497Z,101291.88
2022-07-28T17:31:15.870Z,101295.25
2022-07-28T17:33:42.266Z,101289.94
2022-07-28T17:36:09.947Z,101291.22
2022-07-28T17:38:36.285Z,101289.00
2022-07-28T17:41:02.830Z,101283.41
2022-07-28T17:43:29.151Z,101289.03
2022-07-28T17:45:55.548Z,101287.16
2022-07-28T17:48:21.950Z,101285.19
2022-07-28T17:50:48.331Z,101284.53
2022-07-28T17:53:16.035Z,101283.94
2022-07-28T17:55:59.911Z,101280.41
2022-07-28T17:58:28.576Z,101286.63
2022-07-28T18:00:55.840Z,101284.44
2022-07-28T18:03:22.879Z,101281.97
2022-07-28T18:05:49.795Z,101295.31
2022-07-28T18:08:17.615Z,101271.66
2022-07-28T18:10:44.389Z,101276.88
2022-07-28T18:13:10.696Z,101278.78
2022-07-28T18:15:37.117Z,101280.91
2022-07-28T18:18:03.795Z,101285.09
2022-07-28T18:20:30.639Z,101281.75
2022-07-28T18:22:57.041Z,101285.97
2022-07-28T18:25:25.207Z,101286.72
2022-07-28T18:27:51.553Z,101281.66
2022-07-28T18:30:18.206Z,101281.88
2022-07-28T18:32:44.570Z,101277.56
2022-07-28T18:35:11.266Z,101275.94
2022-07-28T18:37:40.055Z,101271.38
2022-07-28T18:40:10.790Z,101275.38
2022-07-28T18:42:38.468Z,101283.72
2022-07-28T18:45:05.450Z,101285.00
2022-07-28T18:47:31.846Z,101289.63
2022-07-28T18:49:58.787Z,101284.88
2022-07-28T18:52:25.181Z,101280.50
2022-07-28T18:54:51.913Z,101278.22
2022-07-28T18:57:18.389Z,101286.38
2022-07-28T18:59:51.681Z,101281.59
2022-07-28T19:02:18.633Z,101291.38
2022-07-28T19:04:45.595Z,101291.44
2022-07-28T19:07:11.949Z,101296.44
2022-07-28T19:09:38.828Z,101300.41
2022-07-28T19:12:05.970Z,101296.88
2022-07-28T19:14:32.329Z,101303.97
2022-07-28T19:17:00.407Z,101303.19
2022-07-28T19:19:26.729Z,101311.06
2022-07-28T19:21:53.036Z,101309.66
2022-07-28T19:24:19.945Z,101305.75
2022-07-28T19:26:47.560Z,101314.25
2022-07-28T19:29:13.902Z,101317.34
2022-07-28T19:31:40.262Z,101321.75
2022-07-28T19:34:08.113Z,101318.03
2022-07-28T19:36:36.070Z,101325.94
2022-07-28T19:39:02.420Z,101322.00
2022-07-28T19:41:28.741Z,101318.69
2022-07-28T19:43:55.078Z,101321.19
2022-07-28T19:46:21.463Z,101318.72
2022-07-28T19:48:47.864Z,101328.69
2022-07-28T19:51:15.697Z,101324.56
2022-07-28T19:53:42.121Z,101324.97
2022-07-28T19:56:09.238Z,101330.16
2022-07-28T19:58:36.129Z,101341.41
2022-07-28T20:01:03.531Z,101336.81
2022-07-28T20:04:02.614Z,101337.03
2022-07-28T20:06:17.524Z,101338.72
2022-07-28T20:08:51.496Z,101338.06
2022-07-28T20:11:17.933Z,101342.88
2022-07-28T20:13:44.259Z,101346.19
2022-07-28T20:16:10.579Z,101347.63
2022-07-28T20:18:36.917Z,101347.63
2022-07-28T20:21:03.347Z,101351.34
2022-07-28T20:23:31.016Z,101347.44
2022-07-28T20:25:57.342Z,101345.75
2022-07-28T20:28:23.728Z,101352.19
2022-07-28T20:30:50.135Z,101342.44
2022-07-28T20:33:16.642Z,101341.97
2022-07-28T20:35:43.021Z,101343.66
2022-07-28T20:38:09.341Z,101349.47
2022-07-28T20:40:37.038Z,101342.41
2022-07-28T20:43:03.374Z,101349.47
2022-07-28T20:45:29.725Z,101346.34
2022-07-28T20:47:56.037Z,101344.06
2022-07-28T20:50:22.365Z,101343.03
2022-07-28T20:52:48.735Z,101347.34
2022-07-28T20:55:15.092Z,101338.44
2022-07-28T20:57:42.773Z,101345.06
2022-07-28T21:00:20.329Z,101341.97
2022-07-28T21:02:46.749Z,101350.25
2022-07-28T21:05:25.674Z,101347.56
2022-07-28T21:08:05.312Z,101355.66
2022-07-28T21:10:33.134Z,101355.03
2022-07-28T21:13:00.841Z,101354.38
2022-07-28T21:15:27.261Z,101357.72
2022-07-28T21:17:53.591Z,101349.81
2022-07-28T21:20:20.071Z,101353.56
2022-07-28T21:22:46.428Z,101351.06
2022-07-28T21:25:12.784Z,101348.16
2022-07-28T21:27:39.106Z,101350.84
2022-07-28T21:30:07.494Z,101350.41
2022-07-28T21:32:33.818Z,101358.31
2022-07-28T21:35:00.147Z,101355.81
2022-07-28T21:37:26.488Z,101356.00
2022-07-28T21:39:52.811Z,101354.97
2022-07-28T21:42:19.151Z,101356.22
2022-07-28T21:44:45.472Z,101361.84
2022-07-28T21:47:13.169Z,101358.06
2022-07-28T21:49:39.518Z,101354.53
2022-07-28T21:52:05.863Z,101354.72
2022-07-28T21:54:32.219Z,101357.22
2022-07-28T21:56:58.559Z,101360.97
2022-07-28T21:59:24.916Z,101352.44
2022-07-28T22:01:51.308Z,101351.41
2022-07-28T22:04:19.620Z,101351.41
2022-07-28T22:06:46.897Z,101353.06
2022-07-28T22:09:13.471Z,101350.72
2022-07-28T22:11:39.797Z,101353.22
2022-07-28T22:14:06.114Z,101349.06
2022-07-28T22:16:32.504Z,101347.59
2022-07-28T22:18:58.880Z,101350.53
2022-07-28T22:21:26.573Z,101352.78
2022-07-28T22:23:52.922Z,101357.53
2022-07-28T22:26:19.304Z,101357.09
2022-07-28T22:28:45.661Z,101351.69
2022-07-28T22:31:12.003Z,101347.97
2022-07-28T22:33:38.749Z,101352.31
2022-07-28T22:36:05.366Z,101346.75
2022-07-28T22:38:33.039Z,101347.56
2022-07-28T22:40:59.404Z,101344.25
2022-07-28T22:43:25.780Z,101342.78
2022-07-28T22:45:52.130Z,101345.06
2022-07-28T22:48:18.688Z,101347.13
2022-07-28T22:50:45.021Z,101353.34
2022-07-28T22:53:11.387Z,101336.75
2022-07-28T22:58:23.031Z,101347.13
2022-07-28T23:00:49.499Z,101350.84
2022-07-28T23:03:17.954Z,101348.72
2022-07-28T23:05:44.958Z,101347.50
2022-07-28T23:08:11.476Z,101344.81
2022-07-28T23:10:40.762Z,101346.06
2022-07-28T23:13:07.162Z,101342.34
2022-07-28T23:15:40.884Z,101352.53
2022-07-28T23:18:08.271Z,101355.66
2022-07-28T23:20:34.631Z,101351.09
2022-07-28T23:23:01.024Z,101353.56
2022-07-28T23:25:27.471Z,101355.22
2022-07-28T23:27:55.199Z,101347.97
2022-07-28T23:30:21.596Z,101353.41
2022-07-28T23:32:47.987Z,101360.41
2022-07-28T23:35:14.366Z,101367.47
2022-07-28T23:37:40.740Z,101364.81
2022-07-28T23:40:07.801Z,101366.44
2022-07-28T23:42:34.180Z,101362.91
2022-07-28T23:45:03.957Z,101364.91
2022-07-28T23:47:30.377Z,101361.16
2022-07-28T23:49:56.751Z,101358.28
2022-07-28T23:52:23.111Z,101355.75
2022-07-28T23:54:49.471Z,101353.44
2022-07-28T23:57:15.849Z,101349.09
2022-07-28T23:59:42.227Z,101346.78
